sensor_id;sensor_type;location;lat;lon;timestamp;pressure;altitude;pressure_sealevel;temperature;humidity
41312;BME280;27061;41.648;24.568;2023-06-10T00:00:06;85679.66;;;14.63;69.31
41312;BME280;27061;41.648;24.568;2023-06-10T00:02:41;85548.09;;;13.67;68.60
41312;BME280;27061;41.648;24.568;2023-06-10T00:05:11;85703.69;;;14.75;69.83
41312;BME280;27061;41.648;24.568;2023-06-10T00:07:40;85335.22;;;12.00;69.99
41312;BME280;27061;41.648;24.568;2023-06-10T00:10:08;85732.50;;;14.90;70.55
41312;BME280;27061;41.648;24.568;2023-06-10T00:12:37;85567.75;;;13.61;70.90
41312;BME280;27061;41.648;24.568;2023-06-10T00:15:09;85520.97;;;13.43;70.66
41312;BME280;27061;41.648;24.568;2023-06-10T00:17:38;85675.59;;;14.60;70.63
41312;BME280;27061;41.648;24.568;2023-06-10T00:20:08;85683.75;;;14.66;70.68
41312;BME280;27061;41.648;24.568;2023-06-10T00:22:38;85670.91;;;14.52;71.49
41312;BME280;27061;41.648;24.568;2023-06-10T00:25:09;85699.31;;;14.82;72.03
41312;BME280;27061;41.648;24.568;2023-06-10T00:27:38;85444.78;;;12.82;71.79
41312;BME280;27061;41.648;24.568;2023-06-10T00:30:06;85537.25;;;13.57;72.29
41312;BME280;27061;41.648;24.568;2023-06-10T00:32:36;85696.63;;;14.78;72.31
41312;BME280;27061;41.648;24.568;2023-06-10T00:35:05;85683.81;;;14.64;71.79
41312;BME280;27061;41.648;24.568;2023-06-10T00:37:36;85695.31;;;14.75;72.28
41312;BME280;27061;41.648;24.568;2023-06-10T00:40:04;85614.84;;;14.17;72.40
41312;BME280;27061;41.648;24.568;2023-06-10T00:42:32;85408.34;;;12.42;72.79
41312;BME280;27061;41.648;24.568;2023-06-10T00:45:00;85681.69;;;14.64;72.34
41312;BME280;27061;41.648;24.568;2023-06-10T00:47:28;85535.66;;;13.64;72.35
41312;BME280;27061;41.648;24.568;2023-06-10T00:49:56;85555.00;;;13.68;72.62
41312;BME280;27061;41.648;24.568;2023-06-10T00:52:27;85699.31;;;14.82;73.12
41312;BME280;27061;41.648;24.568;2023-06-10T00:54:55;85644.88;;;14.37;73.08
41312;BME280;27061;41.648;24.568;2023-06-10T00:57:22;85713.47;;;14.74;73.04
41312;BME280;27061;41.648;24.568;2023-06-10T00:59:51;85693.84;;;14.78;73.00
41312;BME280;27061;41.648;24.568;2023-06-10T01:02:18;85551.63;;;13.66;73.16
41312;BME280;27061;41.648;24.568;2023-06-10T01:04:48;85404.94;;;12.40;73.12
41312;BME280;27061;41.648;24.568;2023-06-10T01:07:48;85496.91;;;13.33;73.30
41312;BME280;27061;41.648;24.568;2023-06-10T01:12:59;85650.47;;;14.37;73.76
41312;BME280;27061;41.648;24.568;2023-06-10T01:15:31;85679.91;;;14.78;72.78
41312;BME280;27061;41.648;24.568;2023-06-10T01:18:08;85680.59;;;14.78;73.24
41312;BME280;27061;41.648;24.568;2023-06-10T01:20:38;85651.66;;;14.44;73.07
41312;BME280;27061;41.648;24.568;2023-06-10T01:23:11;85678.56;;;14.77;72.92
41312;BME280;27061;41.648;24.568;2023-06-10T01:25:45;85478.63;;;13.15;73.35
41312;BME280;27061;41.648;24.568;2023-06-10T01:28:44;85684.38;;;14.69;74.06
41312;BME280;27061;41.648;24.568;2023-06-10T01:34:08;85630.97;;;14.37;72.36
41312;BME280;27061;41.648;24.568;2023-06-10T01:36:38;85613.34;;;14.20;72.67
41312;BME280;27061;41.648;24.568;2023-06-10T01:39:10;85663.75;;;14.59;72.96
41312;BME280;27061;41.648;24.568;2023-06-10T01:41:40;85506.50;;;13.38;72.66
41312;BME280;27061;41.648;24.568;2023-06-10T01:44:10;85401.97;;;12.73;72.05
41312;BME280;27061;41.648;24.568;2023-06-10T01:46:39;85437.53;;;12.93;72.10
41312;BME280;27061;41.648;24.568;2023-06-10T01:49:07;85633.72;;;14.39;72.51
41312;BME280;27061;41.648;24.568;2023-06-10T01:51:35;85648.88;;;14.44;71.87
41312;BME280;27061;41.648;24.568;2023-06-10T01:54:06;85506.53;;;13.11;73.12
41312;BME280;27061;41.648;24.568;2023-06-10T01:56:34;85487.53;;;12.93;73.18
41312;BME280;27061;41.648;24.568;2023-06-10T01:59:02;85370.81;;;12.19;71.54
41312;BME280;27061;41.648;24.568;2023-06-10T02:01:29;85577.53;;;13.58;72.29
41312;BME280;27061;41.648;24.568;2023-06-10T02:03:57;85647.44;;;14.20;72.59
41312;BME280;27061;41.648;24.568;2023-06-10T02:06:24;85565.19;;;13.53;72.24
41312;BME280;27061;41.648;24.568;2023-06-10T02:08:54;85505.06;;;13.14;72.19
41312;BME280;27061;41.648;24.568;2023-06-10T02:11:24;85552.19;;;13.45;72.11
41312;BME280;27061;41.648;24.568;2023-06-10T02:13:51;85677.47;;;14.18;73.07
41312;BME280;27061;41.648;24.568;2023-06-10T02:16:19;85653.72;;;13.96;73.48
41312;BME280;27061;41.648;24.568;2023-06-10T02:18:48;85614.56;;;13.77;73.78
41312;BME280;27061;41.648;24.568;2023-06-10T02:21:16;85521.53;;;12.96;73.37
41312;BME280;27061;41.648;24.568;2023-06-10T02:23:43;85395.19;;;12.16;73.13
41312;BME280;27061;41.648;24.568;2023-06-10T02:26:11;85633.31;;;14.04;73.49
41312;BME280;27061;41.648;24.568;2023-06-10T02:28:42;85622.25;;;14.02;74.18
41312;BME280;27061;41.648;24.568;2023-06-10T02:31:13;85472.06;;;12.75;74.55
41312;BME280;27061;41.648;24.568;2023-06-10T02:33:43;85602.38;;;13.66;74.68
41312;BME280;27061;41.648;24.568;2023-06-10T02:36:12;85656.16;;;14.08;75.25
41312;BME280;27061;41.648;24.568;2023-06-10T02:38:43;85583.75;;;13.61;75.50
41312;BME280;27061;41.648;24.568;2023-06-10T02:41:10;85642.94;;;14.09;75.25
41312;BME280;27061;41.648;24.568;2023-06-10T02:43:40;85586.22;;;13.46;75.81
41312;BME280;27061;41.648;24.568;2023-06-10T02:46:08;85524.56;;;13.12;75.34
41312;BME280;27061;41.648;24.568;2023-06-10T02:48:43;85606.22;;;13.77;75.79
41312;BME280;27061;41.648;24.568;2023-06-10T02:51:13;85476.94;;;12.75;76.27
41312;BME280;27061;41.648;24.568;2023-06-10T02:53:46;85688.91;;;14.30;76.95
41312;BME280;27061;41.648;24.568;2023-06-10T02:56:18;85669.41;;;14.08;77.80
41312;BME280;27061;41.648;24.568;2023-06-10T02:58:46;85577.13;;;13.23;77.90
41312;BME280;27061;41.648;24.568;2023-06-10T03:01:15;85688.69;;;14.14;77.72
41312;BME280;27061;41.648;24.568;2023-06-10T03:03:56;85573.91;;;13.39;77.47
41312;BME280;27061;41.648;24.568;2023-06-10T03:06:23;85647.69;;;13.87;78.29
41312;BME280;27061;41.648;24.568;2023-06-10T03:09:05;85522.16;;;12.98;78.71
41312;BME280;27061;41.648;24.568;2023-06-10T03:11:33;85691.44;;;14.16;79.10
41312;BME280;27061;41.648;24.568;2023-06-10T03:14:02;85481.44;;;12.62;78.76
41312;BME280;27061;41.648;24.568;2023-06-10T03:16:31;85671.03;;;13.99;78.83
41312;BME280;27061;41.648;24.568;2023-06-10T03:19:00;85644.09;;;13.91;79.05
41312;BME280;27061;41.648;24.568;2023-06-10T03:21:29;85579.31;;;13.45;79.12
41312;BME280;27061;41.648;24.568;2023-06-10T03:23:59;85462.22;;;12.54;79.49
41312;BME280;27061;41.648;24.568;2023-06-10T03:26:26;85514.31;;;13.05;79.46
41312;BME280;27061;41.648;24.568;2023-06-10T03:28:55;85696.34;;;14.40;79.38
41312;BME280;27061;41.648;24.568;2023-06-10T03:31:24;85610.31;;;13.80;80.52
41312;BME280;27061;41.648;24.568;2023-06-10T03:33:54;85664.34;;;14.14;80.61
41312;BME280;27061;41.648;24.568;2023-06-10T03:36:22;85665.41;;;14.25;80.59
41312;BME280;27061;41.648;24.568;2023-06-10T03:38:50;85542.63;;;13.38;80.55
41312;BME280;27061;41.648;24.568;2023-06-10T03:41:21;85698.09;;;14.52;81.02
41312;BME280;27061;41.648;24.568;2023-06-10T03:43:51;85692.59;;;14.50;80.88
41312;BME280;27061;41.648;24.568;2023-06-10T03:46:20;85697.97;;;14.56;81.42
41312;BME280;27061;41.648;24.568;2023-06-10T03:48:48;85695.75;;;14.60;81.75
41312;BME280;27061;41.648;24.568;2023-06-10T03:51:17;85647.91;;;14.29;81.81
41312;BME280;27061;41.648;24.568;2023-06-10T03:53:44;85670.47;;;14.44;81.78
41312;BME280;27061;41.648;24.568;2023-06-10T03:56:12;85657.38;;;14.40;81.54
41312;BME280;27061;41.648;24.568;2023-06-10T03:58:39;85599.28;;;14.01;81.17
41312;BME280;27061;41.648;24.568;2023-06-10T04:01:07;85698.00;;;14.79;81.06
41312;BME280;27061;41.648;24.568;2023-06-10T04:03:35;85658.13;;;14.37;82.07
41312;BME280;27061;41.648;24.568;2023-06-10T04:06:03;85599.88;;;14.06;82.34
41312;BME280;27061;41.648;24.568;2023-06-10T04:08:32;85565.06;;;13.57;82.43
41312;BME280;27061;41.648;24.568;2023-06-10T04:11:01;85635.41;;;14.28;82.89
41312;BME280;27061;41.648;24.568;2023-06-10T04:13:29;85665.19;;;14.58;82.95
41312;BME280;27061;41.648;24.568;2023-06-10T04:15:59;85486.59;;;13.30;82.84
41312;BME280;27061;41.648;24.568;2023-06-10T04:18:27;85636.44;;;14.41;83.58
41312;BME280;27061;41.648;24.568;2023-06-10T04:21:02;85635.84;;;14.37;84.50
41312;BME280;27061;41.648;24.568;2023-06-10T04:23:35;85550.56;;;13.77;84.24
41312;BME280;27061;41.648;24.568;2023-06-10T04:26:02;85662.09;;;14.69;84.91
41312;BME280;27061;41.648;24.568;2023-06-10T04:28:30;85624.22;;;14.30;84.91
41312;BME280;27061;41.648;24.568;2023-06-10T04:31:00;85696.59;;;15.02;84.51
41312;BME280;27061;41.648;24.568;2023-06-10T04:33:30;85487.38;;;13.51;84.49
41312;BME280;27061;41.648;24.568;2023-06-10T04:36:01;85514.78;;;13.65;83.98
41312;BME280;27061;41.648;24.568;2023-06-10T04:38:31;85423.38;;;13.03;84.26
41312;BME280;27061;41.648;24.568;2023-06-10T04:41:00;85633.59;;;14.66;84.32
41312;BME280;27061;41.648;24.568;2023-06-10T04:43:30;85535.13;;;13.82;83.62
41312;BME280;27061;41.648;24.568;2023-06-10T04:45:59;85662.69;;;14.94;81.78
41312;BME280;27061;41.648;24.568;2023-06-10T04:48:27;85564.59;;;14.21;79.72
41312;BME280;27061;41.648;24.568;2023-06-10T04:50:55;85678.88;;;15.12;79.86
41312;BME280;27061;41.648;24.568;2023-06-10T04:53:29;85552.09;;;14.20;79.74
41312;BME280;27061;41.648;24.568;2023-06-10T04:55:59;85661.91;;;14.97;79.75
41312;BME280;27061;41.648;24.568;2023-06-10T04:58:27;85708.66;;;15.41;80.48
41312;BME280;27061;41.648;24.568;2023-06-10T05:00:54;85557.69;;;14.20;79.50
41312;BME280;27061;41.648;24.568;2023-06-10T05:03:24;85545.38;;;14.13;78.86
41312;BME280;27061;41.648;24.568;2023-06-10T05:05:55;85582.66;;;14.47;79.24
41312;BME280;27061;41.648;24.568;2023-06-10T05:08:23;85414.75;;;13.38;78.31
41312;BME280;27061;41.648;24.568;2023-06-10T05:10:50;85497.38;;;14.12;77.59
41312;BME280;27061;41.648;24.568;2023-06-10T05:13:24;85436.28;;;13.63;78.49
41312;BME280;27061;41.648;24.568;2023-06-10T05:15:54;85590.22;;;14.94;77.94
41312;BME280;27061;41.648;24.568;2023-06-10T05:18:23;85656.69;;;15.52;77.98
41312;BME280;27061;41.648;24.568;2023-06-10T05:20:50;85506.53;;;14.54;80.00
41312;BME280;27061;41.648;24.568;2023-06-10T05:23:18;85541.69;;;14.87;78.37
41312;BME280;27061;41.648;24.568;2023-06-10T05:25:46;85647.72;;;15.70;83.24
41312;BME280;27061;41.648;24.568;2023-06-10T05:28:14;85655.63;;;15.84;87.03
41312;BME280;27061;41.648;24.568;2023-06-10T05:30:42;85467.84;;;14.44;84.57
41312;BME280;27061;41.648;24.568;2023-06-10T05:33:09;85649.00;;;15.94;88.38
41312;BME280;27061;41.648;24.568;2023-06-10T05:35:37;85556.66;;;15.39;88.27
41312;BME280;27061;41.648;24.568;2023-06-10T05:38:04;85498.53;;;15.07;88.35
41312;BME280;27061;41.648;24.568;2023-06-10T05:40:32;85395.75;;;14.34;87.40
41312;BME280;27061;41.648;24.568;2023-06-10T05:42:59;85478.88;;;14.90;86.52
41312;BME280;27061;41.648;24.568;2023-06-10T05:45:29;85409.25;;;14.48;85.84
41312;BME280;27061;41.648;24.568;2023-06-10T05:47:57;85514.88;;;15.58;84.96
41312;BME280;27061;41.648;24.568;2023-06-10T05:50:24;85488.91;;;15.43;84.30
41312;BME280;27061;41.648;24.568;2023-06-10T05:52:52;85680.47;;;16.90;84.24
41312;BME280;27061;41.648;24.568;2023-06-10T05:55:21;85594.78;;;16.26;83.27
41312;BME280;27061;41.648;24.568;2023-06-10T05:57:58;85691.81;;;17.05;83.62
41312;BME280;27061;41.648;24.568;2023-06-10T06:00:25;85341.78;;;14.46;82.42
41312;BME280;27061;41.648;24.568;2023-06-10T06:02:55;85558.25;;;16.32;81.83
41312;BME280;27061;41.648;24.568;2023-06-10T06:05:25;85602.78;;;16.55;81.05
41312;BME280;27061;41.648;24.568;2023-06-10T06:07:53;85652.84;;;17.17;80.75
41312;BME280;27061;41.648;24.568;2023-06-10T06:10:22;85678.59;;;17.39;80.34
41312;BME280;27061;41.648;24.568;2023-06-10T06:12:52;85517.28;;;16.27;80.81
41312;BME280;27061;41.648;24.568;2023-06-10T06:15:21;85521.72;;;16.38;80.97
41312;BME280;27061;41.648;24.568;2023-06-10T06:17:49;85668.94;;;17.71;79.35
41312;BME280;27061;41.648;24.568;2023-06-10T06:20:20;85568.13;;;16.86;78.46
41312;BME280;27061;41.648;24.568;2023-06-10T06:22:48;85678.56;;;17.93;79.11
41312;BME280;27061;41.648;24.568;2023-06-10T06:48:21;85669.78;;;18.68;66.98
41312;BME280;27061;41.648;24.568;2023-06-10T06:50:49;85403.56;;;16.59;68.91
41312;BME280;27061;41.648;24.568;2023-06-10T06:53:16;85431.91;;;17.01;68.97
41312;BME280;27061;41.648;24.568;2023-06-10T06:55:44;85668.75;;;19.07;69.47
41312;BME280;27061;41.648;24.568;2023-06-10T06:58:12;85638.53;;;18.93;69.90
41312;BME280;27061;41.648;24.568;2023-06-10T07:00:39;85464.31;;;17.61;69.82
41312;BME280;27061;41.648;24.568;2023-06-10T07:03:07;85542.00;;;18.42;69.83
41312;BME280;27061;41.648;24.568;2023-06-10T07:05:35;85586.56;;;18.64;71.49
41312;BME280;27061;41.648;24.568;2023-06-10T07:08:03;85482.94;;;18.00;70.81
41312;BME280;27061;41.648;24.568;2023-06-10T07:10:31;85645.19;;;19.31;72.52
41312;BME280;27061;41.648;24.568;2023-06-10T07:12:58;85550.59;;;18.69;71.98
41312;BME280;27061;41.648;24.568;2023-06-10T07:15:27;85352.22;;;17.33;71.01
41312;BME280;27061;41.648;24.568;2023-06-10T07:17:54;85640.22;;;19.49;70.58
41312;BME280;27061;41.648;24.568;2023-06-10T07:20:22;85537.06;;;18.74;70.84
41312;BME280;27061;41.648;24.568;2023-06-10T07:22:50;85624.19;;;19.45;72.24
41312;BME280;27061;41.648;24.568;2023-06-10T07:25:17;85603.59;;;19.36;72.42
41312;BME280;27061;41.648;24.568;2023-06-10T07:27:44;85657.16;;;19.76;72.05
41312;BME280;27061;41.648;24.568;2023-06-10T07:30:12;85548.13;;;18.92;72.26
41312;BME280;27061;41.648;24.568;2023-06-10T07:32:42;85634.31;;;19.69;73.34
41312;BME280;27061;41.648;24.568;2023-06-10T07:35:11;85658.13;;;20.00;74.68
41312;BME280;27061;41.648;24.568;2023-06-10T07:37:39;85543.00;;;19.26;74.33
41312;BME280;27061;41.648;24.568;2023-06-10T07:40:07;85497.63;;;19.07;74.39
41312;BME280;27061;41.648;24.568;2023-06-10T07:42:35;85495.59;;;19.06;72.70
41312;BME280;27061;41.648;24.568;2023-06-10T07:45:04;85626.50;;;20.14;71.88
41312;BME280;27061;41.648;24.568;2023-06-10T07:47:33;85652.53;;;20.42;70.34
41312;BME280;27061;41.648;24.568;2023-06-10T07:50:01;85647.69;;;20.40;68.72
41312;BME280;27061;41.648;24.568;2023-06-10T07:52:29;85628.25;;;20.22;67.92
41312;BME280;27061;41.648;24.568;2023-06-10T07:54:56;85608.94;;;20.14;68.48
41312;BME280;27061;41.648;24.568;2023-06-10T07:57:23;85608.09;;;20.17;68.44
41312;BME280;27061;41.648;24.568;2023-06-10T07:59:51;85635.00;;;20.41;66.48
41312;BME280;27061;41.648;24.568;2023-06-10T08:02:19;85660.63;;;20.63;66.46
41312;BME280;27061;41.648;24.568;2023-06-10T08:04:49;85520.53;;;19.56;67.02
41312;BME280;27061;41.648;24.568;2023-06-10T08:07:17;85489.97;;;19.35;67.84
41312;BME280;27061;41.648;24.568;2023-06-10T08:09:46;85509.78;;;19.60;67.05
41312;BME280;27061;41.648;24.568;2023-06-10T08:12:13;85573.22;;;20.12;66.63
41312;BME280;27061;41.648;24.568;2023-06-10T08:14:43;85600.31;;;20.32;67.17
41312;BME280;27061;41.648;24.568;2023-06-10T08:17:11;85523.91;;;19.73;67.02
41312;BME280;27061;41.648;24.568;2023-06-10T08:19:39;85670.31;;;20.93;67.20
41312;BME280;27061;41.648;24.568;2023-06-10T08:22:06;85663.22;;;20.94;67.15
41312;BME280;27061;41.648;24.568;2023-06-10T08:24:34;85471.09;;;19.48;66.45
41312;BME280;27061;41.648;24.568;2023-06-10T08:27:01;85661.78;;;20.95;65.47
41312;BME280;27061;41.648;24.568;2023-06-10T08:29:30;85509.25;;;19.85;64.38
41312;BME280;27061;41.648;24.568;2023-06-10T08:31:58;85636.50;;;20.80;64.53
41312;BME280;27061;41.648;24.568;2023-06-10T08:34:26;85551.16;;;20.31;63.32
41312;BME280;27061;41.648;24.568;2023-06-10T08:36:53;85649.56;;;21.13;64.44
41312;BME280;27061;41.648;24.568;2023-06-10T08:39:22;85622.47;;;21.21;68.37
41312;BME280;27061;41.648;24.568;2023-06-10T08:44:29;85517.41;;;20.59;67.31
41312;BME280;27061;41.648;24.568;2023-06-10T08:46:59;85615.63;;;21.43;67.03
41312;BME280;27061;41.648;24.568;2023-06-10T08:49:30;85630.19;;;21.73;67.08
41312;BME280;27061;41.648;24.568;2023-06-10T08:51:59;85615.31;;;21.87;65.99
41312;BME280;27061;41.648;24.568;2023-06-10T08:54:32;85574.28;;;21.65;65.77
41312;BME280;27061;41.648;24.568;2023-06-10T08:57:02;85616.91;;;22.09;63.97
41312;BME280;27061;41.648;24.568;2023-06-10T08:59:31;85510.94;;;21.00;59.44
41312;BME280;27061;41.648;24.568;2023-06-10T09:02:07;85577.00;;;21.79;61.06
41312;BME280;27061;41.648;24.568;2023-06-10T09:04:36;85600.22;;;21.92;58.16
41312;BME280;27061;41.648;24.568;2023-06-10T09:07:04;85623.00;;;22.14;61.22
41312;BME280;27061;41.648;24.568;2023-06-10T09:09:32;85627.72;;;22.17;62.02
41312;BME280;27061;41.648;24.568;2023-06-10T09:12:01;85587.44;;;21.93;57.24
41312;BME280;27061;41.648;24.568;2023-06-10T09:14:28;85608.34;;;22.11;58.69
41312;BME280;27061;41.648;24.568;2023-06-10T09:16:55;85619.81;;;22.07;57.22
41312;BME280;27061;41.648;24.568;2023-06-10T09:19:28;85606.28;;;21.97;56.70
41312;BME280;27061;41.648;24.568;2023-06-10T09:21:56;85598.31;;;22.02;58.13
41312;BME280;27061;41.648;24.568;2023-06-10T09:24:24;85574.84;;;21.92;59.20
41312;BME280;27061;41.648;24.568;2023-06-10T09:27:08;85592.19;;;21.84;56.15
41312;BME280;27061;41.648;24.568;2023-06-10T09:30:03;85613.88;;;22.01;55.64
41312;BME280;27061;41.648;24.568;2023-06-10T09:32:30;85619.63;;;21.99;58.86
41312;BME280;27061;41.648;24.568;2023-06-10T09:34:58;85578.81;;;21.60;59.50
41312;BME280;27061;41.648;24.568;2023-06-10T09:37:25;85628.72;;;21.86;61.24
41312;BME280;27061;41.648;24.568;2023-06-10T09:40:03;85604.16;;;21.47;61.38
41312;BME280;27061;41.648;24.568;2023-06-10T09:42:33;85637.06;;;21.50;60.91
41312;BME280;27061;41.648;24.568;2023-06-10T09:45:06;85643.53;;;20.94;58.38
41312;BME280;27061;41.648;24.568;2023-06-10T09:47:34;85560.56;;;20.26;59.40
41312;BME280;27061;41.648;24.568;2023-06-10T09:50:02;85633.91;;;20.49;61.01
41312;BME280;27061;41.648;24.568;2023-06-10T09:52:30;85557.31;;;19.79;63.33
41312;BME280;27061;41.648;24.568;2023-06-10T09:55:01;85634.06;;;20.03;64.05
41312;BME280;27061;41.648;24.568;2023-06-10T09:57:32;85640.78;;;19.81;63.92
41312;BME280;27061;41.648;24.568;2023-06-10T10:00:09;85639.81;;;19.71;65.74
41312;BME280;27061;41.648;24.568;2023-06-10T10:02:51;85660.63;;;19.62;66.72
41312;BME280;27061;41.648;24.568;2023-06-10T10:05:21;85664.59;;;19.52;67.11
41312;BME280;27061;41.648;24.568;2023-06-10T10:07:49;85602.56;;;18.83;67.96
41312;BME280;27061;41.648;24.568;2023-06-10T10:10:18;85653.78;;;19.13;65.16
41312;BME280;27061;41.648;24.568;2023-06-10T10:12:47;85652.75;;;18.89;60.35
41312;BME280;27061;41.648;24.568;2023-06-10T10:15:16;85705.31;;;19.05;60.62
41312;BME280;27061;41.648;24.568;2023-06-10T10:17:55;85712.38;;;19.04;60.05
41312;BME280;27061;41.648;24.568;2023-06-10T10:20:30;85654.19;;;18.40;62.05
41312;BME280;27061;41.648;24.568;2023-06-10T10:22:59;85636.81;;;18.20;63.47
41312;BME280;27061;41.648;24.568;2023-06-10T10:25:38;85684.66;;;18.48;65.16
41312;BME280;27061;41.648;24.568;2023-06-10T10:28:12;85666.75;;;18.41;63.92
41312;BME280;27061;41.648;24.568;2023-06-10T10:30:47;85634.09;;;17.85;64.61
41312;BME280;27061;41.648;24.568;2023-06-10T10:33:21;85714.56;;;18.37;65.20
41312;BME280;27061;41.648;24.568;2023-06-10T10:35:50;85672.28;;;17.92;67.74
41312;BME280;27061;41.648;24.568;2023-06-10T10:38:18;85678.56;;;17.93;68.06
41312;BME280;27061;41.648;24.568;2023-06-10T10:40:46;85683.47;;;17.92;68.41
41312;BME280;27061;41.648;24.568;2023-06-10T10:43:14;85624.00;;;17.40;68.60
41312;BME280;27061;41.648;24.568;2023-06-10T10:45:45;85693.50;;;17.87;69.22
41312;BME280;27061;41.648;24.568;2023-06-10T10:48:13;85664.41;;;17.62;68.99
41312;BME280;27061;41.648;24.568;2023-06-10T10:50:42;85694.31;;;17.67;69.91
41312;BME280;27061;41.648;24.568;2023-06-10T10:53:09;85628.69;;;17.10;70.54
41312;BME280;27061;41.648;24.568;2023-06-10T10:55:36;85702.03;;;17.67;71.94
41312;BME280;27061;41.648;24.568;2023-06-10T10:58:07;85720.47;;;17.78;73.28
41312;BME280;27061;41.648;24.568;2023-06-10T11:00:43;85695.16;;;17.64;73.92
41312;BME280;27061;41.648;24.568;2023-06-10T11:03:16;85702.03;;;17.67;74.55
41312;BME280;27061;41.648;24.568;2023-06-10T11:05:46;85690.84;;;17.67;75.30
41312;BME280;27061;41.648;24.568;2023-06-10T11:11:23;85692.81;;;17.51;75.59
41312;BME280;27061;41.648;24.568;2023-06-10T11:14:11;85706.28;;;17.66;76.07
41312;BME280;27061;41.648;24.568;2023-06-10T11:16:43;85699.16;;;17.69;76.55
41312;BME280;27061;41.648;24.568;2023-06-10T11:19:33;85539.88;;;16.56;76.88
41312;BME280;27061;41.648;24.568;2023-06-10T11:22:06;85554.72;;;16.71;76.92
41312;BME280;27061;41.648;24.568;2023-06-10T11:24:34;85677.53;;;17.84;74.52
41312;BME280;27061;41.648;24.568;2023-06-10T11:27:23;85684.66;;;17.81;75.24
41312;BME280;27061;41.648;24.568;2023-06-10T11:30:17;85565.13;;;16.73;74.26
41312;BME280;27061;41.648;24.568;2023-06-10T11:32:45;85564.19;;;16.78;74.84
41312;BME280;27061;41.648;24.568;2023-06-10T11:35:19;85610.41;;;17.13;75.70
41312;BME280;27061;41.648;24.568;2023-06-10T11:37:48;85630.63;;;17.32;74.17
41312;BME280;27061;41.648;24.568;2023-06-10T11:40:16;85506.53;;;16.33;75.57
41312;BME280;27061;41.648;24.568;2023-06-10T11:42:44;85531.22;;;16.64;76.74
41312;BME280;27061;41.648;24.568;2023-06-10T11:45:15;85502.69;;;16.24;81.09
41312;BME280;27061;41.648;24.568;2023-06-10T11:47:58;85660.84;;;17.46;81.76
41312;BME280;27061;41.648;24.568;2023-06-10T11:50:32;85455.25;;;16.05;81.01
41312;BME280;27061;41.648;24.568;2023-06-10T11:53:00;85616.00;;;17.13;79.94
41312;BME280;27061;41.648;24.568;2023-06-10T11:58:27;85488.06;;;16.24;79.82
41312;BME280;27061;41.648;24.568;2023-06-10T12:00:54;85660.06;;;17.83;78.39
41312;BME280;27061;41.648;24.568;2023-06-10T12:03:25;85618.69;;;17.50;79.67
41312;BME280;27061;41.648;24.568;2023-06-10T12:06:03;85618.09;;;17.48;78.47
41312;BME280;27061;41.648;24.568;2023-06-10T12:08:32;85624.75;;;17.74;79.07
41312;BME280;27061;41.648;24.568;2023-06-10T12:11:02;85348.09;;;15.61;78.26
41312;BME280;27061;41.648;24.568;2023-06-10T12:13:30;85515.38;;;16.94;77.56
41312;BME280;27061;41.648;24.568;2023-06-10T12:16:07;85599.16;;;17.48;75.23
41312;BME280;27061;41.648;24.568;2023-06-10T12:18:37;85421.31;;;16.34;76.35
41312;BME280;27061;41.648;24.568;2023-06-10T12:21:29;85649.69;;;18.13;77.22
41312;BME280;27061;41.648;24.568;2023-06-10T12:24:10;85590.81;;;17.65;78.39
41312;BME280;27061;41.648;24.568;2023-06-10T12:26:43;85408.88;;;16.48;77.75
41312;BME280;27061;41.648;24.568;2023-06-10T12:29:19;85572.16;;;17.76;78.78
41312;BME280;27061;41.648;24.568;2023-06-10T12:32:01;85482.75;;;17.22;78.27
41312;BME280;27061;41.648;24.568;2023-06-10T12:34:35;85633.03;;;18.43;77.17
41312;BME280;27061;41.648;24.568;2023-06-10T12:37:09;85636.38;;;18.31;75.05
41312;BME280;27061;41.648;24.568;2023-06-10T12:39:41;85463.09;;;17.07;76.34
41312;BME280;27061;41.648;24.568;2023-06-10T12:42:09;85566.47;;;17.95;77.24
41312;BME280;27061;41.648;24.568;2023-06-10T12:44:40;85631.16;;;18.54;77.61
41312;BME280;27061;41.648;24.568;2023-06-10T12:47:11;85581.47;;;18.21;76.39
41312;BME280;27061;41.648;24.568;2023-06-10T12:49:42;85587.19;;;18.34;75.37
41312;BME280;27061;41.648;24.568;2023-06-10T12:52:09;85573.63;;;18.23;77.68
41312;BME280;27061;41.648;24.568;2023-06-10T12:54:37;85573.16;;;18.34;79.11
41312;BME280;27061;41.648;24.568;2023-06-10T12:57:05;85563.06;;;18.41;79.17
41312;BME280;27061;41.648;24.568;2023-06-10T12:59:34;85478.00;;;17.69;78.82
41312;BME280;27061;41.648;24.568;2023-06-10T13:02:03;85572.56;;;18.48;77.09
41312;BME280;27061;41.648;24.568;2023-06-10T13:04:30;85598.78;;;18.88;76.00
41312;BME280;27061;41.648;24.568;2023-06-10T13:06:58;85615.44;;;19.07;74.36
41312;BME280;27061;41.648;24.568;2023-06-10T13:09:28;85587.47;;;18.90;73.21
41312;BME280;27061;41.648;24.568;2023-06-10T13:11:55;85566.47;;;18.89;72.65
41312;BME280;27061;41.648;24.568;2023-06-10T13:14:23;85562.59;;;18.82;72.69
41312;BME280;27061;41.648;24.568;2023-06-10T13:16:50;85567.28;;;19.02;71.51
41312;BME280;27061;41.648;24.568;2023-06-10T13:19:18;85534.06;;;18.78;73.50
41312;BME280;27061;41.648;24.568;2023-06-10T13:21:45;85447.91;;;18.15;71.81
41312;BME280;27061;41.648;24.568;2023-06-10T13:24:12;85579.09;;;19.20;74.30
41312;BME280;27061;41.648;24.568;2023-06-10T13:26:40;85612.97;;;19.45;77.44
41312;BME280;27061;41.648;24.568;2023-06-10T13:29:07;85563.41;;;19.10;78.48
41312;BME280;27061;41.648;24.568;2023-06-10T13:31:40;85606.81;;;19.57;79.07
41312;BME280;27061;41.648;24.568;2023-06-10T13:34:09;85594.88;;;19.42;79.58
41312;BME280;27061;41.648;24.568;2023-06-10T13:36:37;85619.88;;;19.78;75.10
41312;BME280;27061;41.648;24.568;2023-06-10T13:39:04;85586.25;;;19.46;73.62
41312;BME280;27061;41.648;24.568;2023-06-10T13:41:32;85573.69;;;19.45;74.47